Time;durP1;ratioP1;P1;durP2;ratioP2;P2;SDS_P1;SDS_P2;PMS_P1;PMS_P2;Temp;Humidity;BMP_temperature;BMP_pressure;BME280_temperature;BME280_humidity;BME280_pressure;Samples;Min_cycle;Max_cycle;Signal;HPM_P1;HPM_P2
2023/07/27 00:02:13;;;;;;;7.00;0.90;;;;;;;12.65;71.39;99926.46;109803;1285;22321;-78
2023/07/27 00:04:44;;;;;;;7.80;1.00;;;;;;;12.62;71.45;99925.68;109791;1285;22168;-78
2023/07/27 00:07:14;;;;;;;5.00;1.00;;;;;;;12.60;71.63;99918.18;109786;1285;22158;-78
2023/07/27 00:09:45;;;;;;;5.70;1.10;;;;;;;12.57;71.84;99924.59;109815;1284;22225;-78
2023/07/27 00:12:16;;;;;;;4.50;0.80;;;;;;;12.53;72.01;99926.14;109797;1277;22558;-78
2023/07/27 00:14:46;;;;;;;6.30;1.30;;;;;;;12.49;72.11;99927.18;109781;1283;22287;-78
2023/07/27 00:17:17;;;;;;;5.10;0.90;;;;;;;12.45;72.11;99929.30;109828;1285;22235;-78
2023/07/27 00:19:48;;;;;;;6.60;1.10;;;;;;;12.41;72.46;99932.38;109775;1285;22532;-78
2023/07/27 00:22:18;;;;;;;5.90;1.00;;;;;;;12.37;72.67;99932.35;109812;1285;22914;-78
2023/07/27 00:24:49;;;;;;;7.30;1.10;;;;;;;12.33;72.76;99931.35;109811;1280;22368;-78
2023/07/27 00:27:20;;;;;;;6.70;1.00;;;;;;;12.31;72.86;99930.58;109809;1280;22251;-78
2023/07/27 00:29:50;;;;;;;5.30;0.90;;;;;;;12.29;73.05;99932.95;109789;1281;22349;-78
2023/07/27 00:32:21;;;;;;;6.40;0.90;;;;;;;12.27;73.23;99930.89;109805;1273;22133;-78
2023/07/27 00:34:54;;;;;;;6.70;1.10;;;;;;;12.24;73.41;99930.73;109810;1285;22161;-78
2023/07/27 00:37:24;;;;;;;6.50;1.20;;;;;;;12.20;73.28;99932.84;109757;1275;22234;-78
2023/07/27 00:39:55;;;;;;;4.80;1.10;;;;;;;12.17;73.56;99934.29;109772;1285;22878;-78
2023/07/27 00:42:26;;;;;;;6.80;1.00;;;;;;;12.14;73.72;99933.76;109770;1280;22246;-78
2023/07/27 00:44:56;;;;;;;5.60;0.90;;;;;;;12.10;73.86;99934.34;109797;1285;22244;-78
2023/07/27 00:47:27;;;;;;;2.90;0.90;;;;;;;12.08;73.86;99927.55;109803;1285;22194;-78
2023/07/27 00:49:58;;;;;;;4.70;0.80;;;;;;;12.07;73.81;99929.02;109776;1285;22192;-78
2023/07/27 00:52:29;;;;;;;3.00;0.90;;;;;;;12.04;73.93;99921.16;109807;1279;22102;-78
2023/07/27 00:55:00;;;;;;;4.30;0.90;;;;;;;12.01;73.88;99920.89;109802;1285;22263;-77
2023/07/27 00:57:31;;;;;;;3.70;0.90;;;;;;;11.98;73.77;99923.20;109791;1280;22151;-77
2023/07/27 01:00:02;;;;;;;5.00;0.90;;;;;;;11.97;74.07;99925.48;109763;1279;22328;-77
2023/07/27 01:02:33;;;;;;;4.70;0.80;;;;;;;11.94;74.01;99927.18;109770;1280;22158;-77
2023/07/27 01:05:04;;;;;;;9.40;1.90;;;;;;;11.90;74.20;99932.30;109777;1277;22342;-76
2023/07/27 01:07:35;;;;;;;4.70;0.60;;;;;;;11.86;74.24;99930.02;109800;1285;22160;-77
2023/07/27 01:10:06;;;;;;;7.40;0.90;;;;;;;11.84;74.33;99928.63;109770;1285;22409;-77
2023/07/27 01:12:44;;;;;;;4.50;0.70;;;;;;;11.83;74.52;99923.34;109776;1280;22256;-77
2023/07/27 01:15:16;;;;;;;5.20;1.40;;;;;;;11.80;74.28;99927.67;109795;1277;22157;-77
2023/07/27 01:17:57;;;;;;;4.00;0.80;;;;;;;11.76;74.49;99925.14;109794;1285;22272;-76
2023/07/27 01:20:35;;;;;;;4.50;1.20;;;;;;;11.71;74.56;99921.94;109791;1285;22945;-77
2023/07/27 01:23:38;;;;;;;4.40;0.70;;;;;;;11.66;74.56;99915.99;109764;1285;23111;-78
2023/07/27 01:26:44;;;;;;;4.80;0.80;;;;;;;11.56;74.70;99917.77;109798;1285;22384;-78
2023/07/27 01:29:38;;;;;;;5.80;1.10;;;;;;;11.48;75.05;99917.89;109347;1286;22222;-77
2023/07/27 01:32:10;;;;;;;7.80;0.90;;;;;;;11.41;75.18;99915.42;109345;1290;22292;-77
2023/07/27 01:34:44;;;;;;;6.40;0.90;;;;;;;11.36;75.19;99914.37;109357;1290;23089;-77
2023/07/27 01:37:18;;;;;;;4.00;0.90;;;;;;;11.33;75.29;99915.29;109357;1284;22217;-78
2023/07/27 01:39:52;;;;;;;4.00;1.10;;;;;;;11.30;75.62;99920.44;109345;1283;22992;-77
2023/07/27 01:42:26;;;;;;;4.20;1.00;;;;;;;11.29;75.56;99924.19;109329;1288;23065;-78
2023/07/27 01:44:58;;;;;;;2.70;1.10;;;;;;;11.27;75.53;99923.91;109371;1286;22186;-78
2023/07/27 01:47:31;;;;;;;6.20;1.00;;;;;;;11.26;75.74;99922.77;109378;1290;22237;-78
2023/07/27 01:50:02;;;;;;;4.10;0.90;;;;;;;11.24;75.76;99922.56;109356;1286;24644;-77
2023/07/27 01:52:34;;;;;;;4.00;0.90;;;;;;;11.20;75.68;99919.42;109368;1288;23193;-78
2023/07/27 01:55:07;;;;;;;6.40;0.90;;;;;;;11.17;75.87;99922.83;109379;1279;22365;-77
2023/07/27 01:57:39;;;;;;;4.70;0.90;;;;;;;11.14;76.08;99920.83;109386;1286;22224;-78
2023/07/27 02:00:13;;;;;;;4.30;1.00;;;;;;;11.10;76.23;99921.73;109366;1290;22226;-78
2023/07/27 02:02:45;;;;;;;3.50;0.80;;;;;;;11.03;76.32;99921.91;109377;1290;22266;-78
2023/07/27 02:05:16;;;;;;;5.20;0.90;;;;;;;10.95;76.53;99930.66;109367;1276;22251;-78
2023/07/27 02:07:47;;;;;;;5.60;0.90;;;;;;;10.90;76.77;99935.36;109681;1285;22247;-77
2023/07/27 02:10:20;;;;;;;2.90;0.70;;;;;;;10.87;77.09;99938.45;109787;1285;22635;-77
2023/07/27 02:12:58;;;;;;;5.90;0.90;;;;;;;10.85;77.20;99931.19;109806;1281;22211;-78
2023/07/27 02:15:34;;;;;;;4.40;1.00;;;;;;;10.82;77.27;99927.83;109768;1285;22205;-77
2023/07/27 02:18:09;;;;;;;7.20;1.00;;;;;;;10.80;77.34;99927.26;109794;1270;22250;-78
2023/07/27 02:20:42;;;;;;;5.50;1.00;;;;;;;10.80;77.36;99928.83;109771;1285;22245;-78
2023/07/27 02:23:14;;;;;;;3.80;0.80;;;;;;;10.80;77.51;99926.44;109779;1285;22154;-78
2023/07/27 02:25:45;;;;;;;5.90;0.90;;;;;;;10.78;77.49;99926.12;109784;1281;22262;-77
2023/07/27 02:28:15;;;;;;;4.30;0.90;;;;;;;10.75;77.76;99927.70;109794;1273;22155;-77
2023/07/27 02:30:46;;;;;;;3.40;0.80;;;;;;;10.74;77.94;99927.48;109785;1280;22219;-77
2023/07/27 02:33:17;;;;;;;3.30;1.00;;;;;;;10.74;77.81;99924.34;109786;1285;22147;-77
2023/07/27 02:35:47;;;;;;;3.80;1.00;;;;;;;10.75;77.94;99927.54;109788;1280;22157;-77
2023/07/27 02:38:18;;;;;;;4.20;1.40;;;;;;;10.73;78.07;99928.59;109812;1283;22214;-77
2023/07/27 02:40:50;;;;;;;6.40;0.90;;;;;;;10.73;78.12;99936.40;109806;1285;22164;-77
2023/07/27 02:43:21;;;;;;;5.80;1.10;;;;;;;10.73;78.57;99938.63;109770;1285;22206;-77
2023/07/27 02:45:57;;;;;;;6.40;1.00;;;;;;;10.74;78.63;99940.52;109809;1285;22225;-77
2023/07/27 02:48:29;;;;;;;7.80;1.00;;;;;;;10.76;78.77;99944.05;109771;1285;22275;-77
2023/07/27 02:50:59;;;;;;;8.70;2.40;;;;;;;10.78;79.17;99951.59;109771;1277;22424;-77
2023/07/27 02:53:30;;;;;;;8.40;1.20;;;;;;;10.80;79.41;99954.01;109802;1285;22186;-77
2023/07/27 02:56:02;;;;;;;8.70;1.20;;;;;;;10.83;79.80;99947.30;109791;1284;22238;-77
2023/07/27 02:58:33;;;;;;;7.50;1.10;;;;;;;10.86;79.52;99951.91;109801;1285;22185;-77
2023/07/27 03:01:04;;;;;;;4.00;0.90;;;;;;;10.88;79.74;99952.90;109770;1285;23163;-77
2023/07/27 03:03:35;;;;;;;8.50;1.20;;;;;;;10.91;80.09;99959.69;109828;1285;22226;-77
2023/07/27 03:06:06;;;;;;;8.10;1.30;;;;;;;10.94;80.11;99954.14;109770;1285;22429;-77
2023/07/27 03:08:37;;;;;;;3.90;1.10;;;;;;;10.96;80.18;99958.64;109788;1285;22545;-77
2023/07/27 03:11:07;;;;;;;6.00;1.30;;;;;;;10.98;80.34;99957.80;109760;1280;23106;-77
2023/07/27 03:13:38;;;;;;;4.80;1.20;;;;;;;11.00;80.47;99955.48;109793;1285;22176;-77
2023/07/27 03:16:09;;;;;;;7.50;1.30;;;;;;;11.01;80.51;99958.80;109789;1285;23057;-77
2023/07/27 03:18:39;;;;;;;4.40;1.10;;;;;;;11.02;80.60;99963.02;109800;1285;22159;-77
2023/07/27 03:21:10;;;;;;;8.80;1.00;;;;;;;11.02;80.62;99960.44;109778;1285;22354;-77
2023/07/27 03:23:41;;;;;;;7.90;2.00;;;;;;;11.02;80.73;99960.64;109808;1285;22878;-77
2023/07/27 03:26:14;;;;;;;10.60;2.70;;;;;;;11.02;80.94;99957.96;109820;1280;22268;-77
2023/07/27 03:28:45;;;;;;;7.90;1.90;;;;;;;11.03;81.06;99962.88;109783;1280;22511;-77
2023/07/27 03:31:21;;;;;;;8.60;1.50;;;;;;;11.02;81.26;99963.84;109763;1273;22375;-77
2023/07/27 03:33:52;;;;;;;9.70;1.90;;;;;;;11.02;81.48;99965.56;109783;1280;23315;-77
2023/07/27 03:36:23;;;;;;;7.00;1.40;;;;;;;11.01;81.43;99962.81;109797;1278;22205;-77
2023/07/27 03:38:53;;;;;;;5.20;1.40;;;;;;;11.01;81.66;99960.52;109799;1285;22297;-77
2023/07/27 03:41:24;;;;;;;7.90;1.30;;;;;;;11.01;81.66;99956.06;109753;1285;22982;-77
2023/07/27 03:43:55;;;;;;;5.50;1.20;;;;;;;11.02;82.14;99954.60;109811;1285;22223;-77
2023/07/27 03:46:25;;;;;;;5.90;1.10;;;;;;;11.05;82.13;99955.65;109756;1280;22163;-78
2023/07/27 03:48:56;;;;;;;7.70;1.70;;;;;;;11.06;82.39;99955.27;109793;1285;22220;-77
2023/07/27 03:51:27;;;;;;;4.70;1.20;;;;;;;11.08;82.71;99959.20;109768;1280;22189;-77
2023/07/27 03:53:57;;;;;;;6.50;1.30;;;;;;;11.10;82.72;99961.16;109792;1285;22168;-77
2023/07/27 03:56:28;;;;;;;7.40;1.50;;;;;;;11.13;82.77;99957.54;109802;1285;22169;-77
2023/07/27 03:58:59;;;;;;;5.80;1.30;;;;;;;11.17;83.01;99957.64;109780;1283;22789;-77
2023/07/27 04:01:29;;;;;;;6.50;1.40;;;;;;;11.21;83.26;99958.70;109771;1285;22211;-77
2023/07/27 04:04:00;;;;;;;6.90;1.50;;;;;;;11.26;83.45;99956.37;109726;1279;22383;-77
2023/07/27 04:06:31;;;;;;;6.50;1.70;;;;;;;11.31;83.78;99955.51;109704;1286;22972;-78
2023/07/27 04:09:02;;;;;;;9.50;1.50;;;;;;;11.35;83.87;99956.37;109723;1279;22231;-77
2023/07/27 04:11:35;;;;;;;9.00;1.30;;;;;;;11.40;84.00;99956.32;109722;1286;22171;-77
2023/07/27 04:14:06;;;;;;;8.40;1.80;;;;;;;11.45;84.19;99957.20;109721;1286;22340;-77
2023/07/27 04:16:37;;;;;;;7.70;1.70;;;;;;;11.50;84.26;99957.24;109721;1275;22936;-77
2023/07/27 04:19:07;;;;;;;6.20;1.30;;;;;;;11.54;84.07;99959.42;109703;1273;22162;-77
2023/07/27 04:21:38;;;;;;;8.50;1.90;;;;;;;11.60;84.30;99959.48;109696;1280;22195;-77
2023/07/27 04:24:10;;;;;;;7.70;1.30;;;;;;;11.66;84.17;99962.26;109705;1280;22399;-77
2023/07/27 04:26:40;;;;;;;9.60;1.50;;;;;;;11.70;84.13;99962.01;109707;1276;22901;-77
2023/07/27 04:29:11;;;;;;;10.60;1.70;;;;;;;11.75;84.60;99963.06;109724;1276;22189;-77
2023/07/27 04:31:42;;;;;;;5.40;1.30;;;;;;;11.80;84.32;99959.20;109681;1286;22184;-77
2023/07/27 04:34:12;;;;;;;5.80;1.50;;;;;;;11.86;84.39;99960.27;109706;1286;22899;-77
2023/07/27 04:36:43;;;;;;;8.30;1.60;;;;;;;11.92;84.44;99959.10;109733;1286;22207;-77
2023/07/27 04:39:14;;;;;;;7.10;1.30;;;;;;;11.98;84.69;99961.51;109714;1286;22407;-78
2023/07/27 04:41:44;;;;;;;6.20;1.20;;;;;;;12.05;84.76;99962.27;109738;1280;22134;-78
2023/07/27 04:44:15;;;;;;;10.90;1.10;;;;;;;12.11;84.77;99958.91;109722;1278;22212;-77
2023/07/27 04:46:46;;;;;;;9.50;1.40;;;;;;;12.17;84.87;99955.56;109747;1286;22252;-77
2023/07/27 04:49:16;;;;;;;5.70;1.40;;;;;;;12.24;84.87;99951.17;109698;1286;22331;-77
2023/07/27 04:51:47;;;;;;;6.40;1.10;;;;;;;12.30;84.78;99954.34;109686;1286;22853;-78
2023/07/27 04:54:19;;;;;;;5.90;1.20;;;;;;;12.39;85.11;99956.48;109706;1286;22342;-78
2023/07/27 04:56:50;;;;;;;5.90;1.20;;;;;;;12.48;84.93;99959.81;109718;1279;22172;-78
2023/07/27 04:59:20;;;;;;;6.50;1.60;;;;;;;12.57;85.11;99965.08;109709;1280;22165;-77
2023/07/27 05:01:51;;;;;;;6.70;1.10;;;;;;;12.66;85.02;99962.73;109742;1276;22176;-77
2023/07/27 05:04:22;;;;;;;7.20;1.50;;;;;;;12.75;84.75;99965.73;109780;1285;22288;-78
2023/07/27 05:06:52;;;;;;;5.20;1.30;;;;;;;12.85;84.85;99965.59;109783;1280;22141;-78
2023/07/27 05:09:23;;;;;;;4.60;1.10;;;;;;;12.95;84.76;99964.16;109785;1285;22208;-78
2023/07/27 05:11:54;;;;;;;5.50;1.20;;;;;;;13.04;84.50;99961.77;109772;1285;22162;-78
2023/07/27 05:14:25;;;;;;;4.00;0.90;;;;;;;13.14;84.63;99963.04;109785;1285;22562;-78
2023/07/27 05:16:55;;;;;;;5.20;1.00;;;;;;;13.26;84.47;99968.39;109759;1285;22903;-78
2023/07/27 05:19:26;;;;;;;6.00;1.50;;;;;;;13.36;84.37;99967.11;109790;1285;22203;-78
2023/07/27 05:21:57;;;;;;;7.40;1.20;;;;;;;13.48;84.30;99972.15;109790;1285;22174;-77
2023/07/27 05:24:27;;;;;;;5.70;1.50;;;;;;;13.59;84.35;99973.96;109774;1285;22164;-77
2023/07/27 05:26:58;;;;;;;6.70;1.40;;;;;;;13.69;84.17;99977.70;109789;1279;22201;-78
2023/07/27 05:29:29;;;;;;;5.50;1.00;;;;;;;13.78;84.14;99976.70;109761;1285;22229;-78
2023/07/27 05:32:00;;;;;;;7.40;1.40;;;;;;;13.91;84.35;99978.10;109792;1285;22272;-78
2023/07/27 05:34:32;;;;;;;8.80;1.20;;;;;;;14.04;83.88;99981.23;109796;1285;22154;-78
2023/07/27 05:37:02;;;;;;;5.00;1.00;;;;;;;14.13;83.66;99981.28;109750;1285;22207;-78
2023/07/27 05:39:33;;;;;;;4.60;1.00;;;;;;;14.20;83.57;99980.83;109753;1285;22200;-78
2023/07/27 05:42:04;;;;;;;6.00;0.90;;;;;;;14.27;82.92;99988.59;109781;1285;22432;-79
2023/07/27 05:44:35;;;;;;;5.70;1.10;;;;;;;14.33;82.14;99987.10;109779;1285;22145;-78
2023/07/27 05:47:06;;;;;;;4.30;1.10;;;;;;;14.39;81.59;99987.13;109780;1277;22328;-78
2023/07/27 05:49:37;;;;;;;5.10;1.00;;;;;;;14.47;81.75;99991.01;109769;1285;22392;-77
2023/07/27 05:52:09;;;;;;;5.70;1.00;;;;;;;14.58;81.33;99991.86;109769;1285;22320;-78
2023/07/27 05:54:39;;;;;;;5.30;1.50;;;;;;;14.66;80.69;99990.73;109806;1279;22584;-78
2023/07/27 05:57:10;;;;;;;4.60;1.20;;;;;;;14.73;80.48;99985.27;109789;1285;22191;-78
2023/07/27 05:59:41;;;;;;;9.50;1.20;;;;;;;14.82;80.65;99982.98;109763;1283;22223;-78
2023/07/27 06:02:12;;;;;;;8.40;1.10;;;;;;;14.93;80.23;99984.54;108538;1278;22695;-77
2023/07/27 06:04:43;;;;;;;3.80;0.90;;;;;;;15.05;79.90;99985.48;107280;1285;22552;-77
2023/07/27 06:07:14;;;;;;;5.20;1.00;;;;;;;15.17;79.44;99986.09;107276;1277;25432;-78
2023/07/27 06:09:45;;;;;;;3.70;0.90;;;;;;;15.27;79.24;99991.16;107215;1280;24228;-77
2023/07/27 06:12:16;;;;;;;6.40;1.10;;;;;;;15.38;78.87;99990.20;107265;1277;22530;-77
2023/07/27 06:14:46;;;;;;;4.40;1.00;;;;;;;15.47;78.13;99989.23;107327;1273;24037;-77
2023/07/27 06:17:17;;;;;;;4.10;1.10;;;;;;;15.55;77.97;99979.46;107356;1283;22723;-78
2023/07/27 06:19:48;;;;;;;7.40;1.10;;;;;;;15.64;78.15;99978.34;107559;1282;22585;-78
2023/07/27 06:22:18;;;;;;;5.10;0.90;;;;;;;15.73;77.87;99982.17;107365;1273;23444;-78
2023/07/27 06:24:49;;;;;;;7.80;1.30;;;;;;;15.83;77.67;99976.38;107353;1283;22556;-78
2023/07/27 06:27:20;;;;;;;4.70;0.90;;;;;;;15.92;77.17;99977.35;107309;1277;22528;-78
2023/07/27 06:29:50;;;;;;;5.10;0.90;;;;;;;16.01;77.20;99975.39;107257;1274;22872;-78
2023/07/27 06:32:21;;;;;;;5.50;1.10;;;;;;;16.10;76.47;99978.23;107292;1283;22545;-78
2023/07/27 06:34:52;;;;;;;4.20;1.00;;;;;;;16.16;75.76;99977.32;107277;1282;22548;-78
2023/07/27 06:37:23;;;;;;;6.70;1.30;;;;;;;16.22;75.82;99977.48;107162;1277;24679;-78
2023/07/27 06:39:54;;;;;;;3.70;1.00;;;;;;;16.30;75.50;99972.18;107045;1283;22585;-78
2023/07/27 06:42:25;;;;;;;6.60;1.40;;;;;;;16.36;75.24;99969.71;107346;1285;23313;-78
2023/07/27 06:44:56;;;;;;;5.60;1.00;;;;;;;16.42;74.71;99971.10;107324;1274;22497;-78
2023/07/27 06:47:27;;;;;;;7.00;1.20;;;;;;;16.47;74.41;99970.29;107350;1282;25443;-78
2023/07/27 06:49:58;;;;;;;4.90;1.00;;;;;;;16.54;74.40;99966.41;107303;1285;23167;-78
2023/07/27 06:52:28;;;;;;;5.20;1.10;;;;;;;16.62;73.98;99965.67;107250;1284;24227;-78
2023/07/27 06:54:59;;;;;;;4.50;1.20;;;;;;;16.66;73.58;99964.35;107222;1285;23011;-78
2023/07/27 06:57:30;;;;;;;4.00;0.90;;;;;;;16.73;73.81;99963.45;107295;1285;22552;-78
2023/07/27 07:00:01;;;;;;;4.50;1.00;;;;;;;16.82;73.42;99968.74;107381;1285;22547;-78
2023/07/27 07:02:32;;;;;;;6.00;0.90;;;;;;;16.88;72.64;99968.63;107284;1285;22489;-78
2023/07/27 07:05:03;;;;;;;5.60;1.10;;;;;;;16.94;72.55;99969.52;107321;1278;22527;-78
2023/07/27 07:07:34;;;;;;;7.10;1.10;;;;;;;16.99;72.01;99966.96;107248;1280;22524;-77
2023/07/27 07:10:05;;;;;;;6.30;1.00;;;;;;;17.02;71.77;99972.84;107184;1278;24308;-78
2023/07/27 07:12:36;;;;;;;4.90;1.10;;;;;;;17.04;71.51;99969.33;107260;1285;25507;-77
2023/07/27 07:15:10;;;;;;;6.60;0.90;;;;;;;17.10;71.57;99978.79;107326;1284;27471;-78
2023/07/27 07:17:40;;;;;;;5.10;1.10;;;;;;;17.17;71.43;99976.87;109815;1285;22174;-78
2023/07/27 07:20:14;;;;;;;5.10;1.00;;;;;;;17.24;71.27;99973.48;109775;1285;22937;-78
2023/07/27 07:22:44;;;;;;;4.70;1.20;;;;;;;17.32;70.86;99979.80;109785;1285;22356;-79
2023/07/27 07:25:15;;;;;;;4.50;0.90;;;;;;;17.38;70.54;99979.52;109800;1285;22170;-78
2023/07/27 07:27:46;;;;;;;3.10;1.00;;;;;;;17.45;70.37;99978.60;109782;1285;22271;-79
2023/07/27 07:30:17;;;;;;;6.20;1.10;;;;;;;17.52;70.11;99976.95;109788;1281;22363;-78
2023/07/27 07:32:50;;;;;;;4.90;1.20;;;;;;;17.57;69.26;99979.77;109783;1285;22972;-79
2023/07/27 07:35:21;;;;;;;5.60;1.00;;;;;;;17.58;69.38;99976.72;109798;1285;22164;-79
2023/07/27 07:37:52;;;;;;;4.10;0.90;;;;;;;17.64;69.69;99975.04;109810;1279;22460;-79
2023/07/27 07:40:24;;;;;;;5.70;0.80;;;;;;;17.73;69.13;99973.53;109769;1285;22219;-78
2023/07/27 07:42:55;;;;;;;4.20;1.10;;;;;;;17.83;69.33;99978.02;109786;1281;23278;-79
2023/07/27 07:45:25;;;;;;;3.40;0.90;;;;;;;17.94;68.49;99981.80;109772;1281;22149;-78
2023/07/27 07:47:56;;;;;;;4.60;0.90;;;;;;;18.01;67.93;99976.60;109801;1285;22186;-78
2023/07/27 07:50:27;;;;;;;3.60;0.80;;;;;;;18.05;67.85;99974.55;109734;1285;22207;-78
2023/07/27 07:52:57;;;;;;;5.90;1.10;;;;;;;18.11;67.53;99970.36;109801;1285;22831;-79
2023/07/27 07:55:28;;;;;;;4.90;0.90;;;;;;;18.14;67.23;99971.16;109765;1285;22151;-78
2023/07/27 07:57:59;;;;;;;6.00;1.10;;;;;;;18.19;67.15;99970.92;109793;1285;22158;-78
2023/07/27 08:00:30;;;;;;;4.50;1.10;;;;;;;18.24;66.44;99970.45;109745;1285;23055;-79
2023/07/27 08:03:01;;;;;;;4.30;1.00;;;;;;;18.28;66.43;99971.60;109792;1285;22166;-78
2023/07/27 08:05:32;;;;;;;5.50;0.90;;;;;;;18.34;66.25;99967.76;109778;1285;22206;-78
2023/07/27 08:08:03;;;;;;;6.20;1.10;;;;;;;18.40;66.14;99962.82;109812;1282;22663;-78
2023/07/27 08:10:34;;;;;;;4.60;1.10;;;;;;;18.45;65.89;99958.03;109825;1284;22172;-79
2023/07/27 08:13:04;;;;;;;5.60;0.80;;;;;;;18.53;65.09;99963.13;109772;1285;22969;-78
2023/07/27 08:15:35;;;;;;;4.00;0.90;;;;;;;18.62;65.38;99956.96;109751;1285;22897;-78
2023/07/27 08:18:06;;;;;;;6.70;1.20;;;;;;;18.71;65.09;99960.09;109806;1277;22297;-78
2023/07/27 08:20:37;;;;;;;4.00;0.90;;;;;;;18.81;64.71;99955.83;109785;1283;22850;-78
2023/07/27 08:23:07;;;;;;;6.50;0.90;;;;;;;18.91;64.52;99958.69;109781;1285;22338;-78
2023/07/27 08:25:40;;;;;;;5.10;0.80;;;;;;;18.99;64.07;99952.96;109790;1285;22135;-78
2023/07/27 08:28:11;;;;;;;3.20;0.90;;;;;;;19.06;63.72;99953.70;109802;1285;22345;-78
2023/07/27 08:30:43;;;;;;;6.00;1.10;;;;;;;19.14;63.43;99952.15;109761;1279;22164;-78
2023/07/27 08:33:14;;;;;;;5.30;1.00;;;;;;;19.21;62.88;99947.27;109794;1285;22189;-78
2023/07/27 08:35:46;;;;;;;3.50;1.00;;;;;;;19.25;62.68;99943.63;109792;1273;22111;-78
2023/07/27 08:38:17;;;;;;;7.30;1.00;;;;;;;19.27;61.91;99942.66;109800;1285;22210;-78
2023/07/27 08:40:56;;;;;;;4.00;0.80;;;;;;;19.34;62.51;99931.42;109765;1282;22873;-78
2023/07/27 08:43:28;;;;;;;4.30;0.90;;;;;;;19.49;61.94;99934.98;109750;1285;22170;-78
2023/07/27 08:45:59;;;;;;;3.90;1.00;;;;;;;19.59;61.43;99930.17;109787;1276;22249;-78
2023/07/27 08:48:30;;;;;;;2.40;0.70;;;;;;;19.66;61.07;99928.67;109786;1285;22189;-78
2023/07/27 08:51:01;;;;;;;2.90;0.60;;;;;;;19.72;60.96;99920.39;109758;1285;22377;-78
2023/07/27 08:53:32;;;;;;;2.10;0.60;;;;;;;19.82;60.98;99920.58;109761;1283;22215;-78
2023/07/27 08:56:04;;;;;;;4.00;0.60;;;;;;;19.94;60.94;99919.45;109781;1278;22167;-78
2023/07/27 08:58:34;;;;;;;3.20;0.90;;;;;;;20.10;60.26;99918.98;109792;1285;22226;-78
2023/07/27 09:01:05;;;;;;;1.70;0.40;;;;;;;20.20;59.41;99919.90;109808;1285;22190;-78
2023/07/27 09:03:36;;;;;;;4.10;0.80;;;;;;;20.21;58.60;99920.25;109807;1285;22851;-78
2023/07/27 09:06:07;;;;;;;3.90;0.80;;;;;;;20.27;58.05;99916.08;109777;1279;22337;-78
2023/07/27 09:08:38;;;;;;;6.90;0.60;;;;;;;20.34;57.55;99913.95;109785;1285;22161;-78
2023/07/27 09:11:10;;;;;;;2.90;0.50;;;;;;;20.45;57.47;99914.89;109770;1278;22966;-78
2023/07/27 09:13:42;;;;;;;3.60;0.60;;;;;;;20.51;56.68;99915.61;109783;1282;22194;-78
2023/07/27 09:16:13;;;;;;;4.00;0.60;;;;;;;20.49;56.75;99910.39;109781;1277;22195;-78
2023/07/27 09:18:44;;;;;;;4.00;0.70;;;;;;;20.55;57.20;99911.16;109790;1285;22263;-78
2023/07/27 09:21:16;;;;;;;2.70;0.50;;;;;;;20.61;55.69;99915.02;109760;1285;22837;-78
2023/07/27 09:23:47;;;;;;;2.20;0.60;;;;;;;20.52;55.12;99914.48;109782;1285;22189;-78
2023/07/27 09:26:26;;;;;;;2.40;0.60;;;;;;;20.42;55.35;99906.84;109764;1282;22205;-78
2023/07/27 09:28:57;;;;;;;2.00;0.60;;;;;;;20.44;54.93;99911.91;109772;1285;22232;-78
2023/07/27 09:31:35;;;;;;;3.70;0.60;;;;;;;20.42;54.59;99909.20;109790;1285;22365;-78
2023/07/27 09:34:07;;;;;;;3.70;0.60;;;;;;;20.40;54.84;99903.75;109778;1285;22329;-78
2023/07/27 09:36:39;;;;;;;2.40;0.50;;;;;;;20.40;54.66;99903.17;109814;1282;22371;-78
2023/07/27 09:39:10;;;;;;;3.50;0.60;;;;;;;20.41;54.17;99900.65;109783;1285;22883;-78
2023/07/27 09:41:44;;;;;;;3.90;0.80;;;;;;;20.48;53.70;99899.23;109782;1285;22152;-78
2023/07/27 09:44:17;;;;;;;3.10;0.60;;;;;;;20.52;53.33;99893.09;109770;1285;22328;-78
2023/07/27 09:46:48;;;;;;;3.30;0.60;;;;;;;20.59;53.48;99890.27;109785;1283;22152;-78
2023/07/27 09:49:20;;;;;;;3.70;0.70;;;;;;;20.70;53.55;99890.75;109775;1285;22136;-78
2023/07/27 09:51:53;;;;;;;2.10;0.60;;;;;;;20.84;53.63;99888.61;109783;1280;22191;-78
2023/07/27 09:54:25;;;;;;;3.50;0.70;;;;;;;20.89;53.43;99884.94;109790;1285;22173;-78
2023/07/27 09:56:56;;;;;;;7.30;0.90;;;;;;;20.95;52.88;99886.66;109797;1285;22912;-78
2023/07/27 09:59:29;;;;;;;3.70;0.80;;;;;;;20.95;52.18;99889.77;109762;1285;22230;-78
2023/07/27 10:01:59;;;;;;;6.20;0.80;;;;;;;21.03;52.10;99885.85;109762;1282;22897;-78
2023/07/27 10:04:30;;;;;;;3.80;0.60;;;;;;;21.15;51.12;99876.99;109765;1285;22189;-78
2023/07/27 10:07:01;;;;;;;4.10;0.70;;;;;;;21.23;51.27;99873.95;109779;1283;22225;-78
2023/07/27 10:09:32;;;;;;;4.30;0.70;;;;;;;21.33;51.04;99869.55;109773;1279;22150;-78
2023/07/27 10:12:04;;;;;;;3.60;0.50;;;;;;;21.43;50.25;99872.02;109768;1285;22226;-78
2023/07/27 10:14:35;;;;;;;2.60;0.60;;;;;;;21.51;49.83;99868.86;109761;1285;22298;-78
2023/07/27 10:17:07;;;;;;;2.30;0.50;;;;;;;21.57;49.63;99867.29;109790;1285;22151;-79
2023/07/27 10:19:45;;;;;;;8.50;1.80;;;;;;;21.68;50.23;99867.65;109765;1285;22623;-78
2023/07/27 10:22:18;;;;;;;3.90;0.70;;;;;;;21.85;50.41;99865.73;109780;1285;22162;-78
2023/07/27 10:24:53;;;;;;;2.70;0.70;;;;;;;21.99;49.74;99871.32;109770;1279;22213;-78
2023/07/27 10:27:25;;;;;;;2.70;0.50;;;;;;;22.08;49.41;99865.63;109786;1285;22146;-78
2023/07/27 10:30:10;;;;;;;2.00;0.50;;;;;;;22.18;49.61;99857.80;109802;1285;22171;-78
2023/07/27 10:33:00;;;;;;;3.20;0.60;;;;;;;22.24;47.69;99862.63;109784;1285;22169;-80
2023/07/27 10:35:52;;;;;;;4.40;0.70;;;;;;;22.18;47.60;99864.05;109780;1285;22124;-78
2023/07/27 10:38:25;;;;;;;2.70;0.50;;;;;;;22.15;47.11;99860.08;109783;1280;22199;-78
2023/07/27 10:40:56;;;;;;;2.00;0.40;;;;;;;22.17;47.63;99851.61;109791;1285;22161;-78
2023/07/27 10:43:29;;;;;;;2.30;0.50;;;;;;;22.27;47.64;99845.31;109831;1285;22139;-78
2023/07/27 10:45:59;;;;;;;5.20;0.60;;;;;;;22.36;47.88;99847.66;109786;1285;22248;-78
2023/07/27 10:48:31;;;;;;;4.40;0.50;;;;;;;22.49;47.85;99843.12;109797;1285;22930;-78
2023/07/27 10:51:02;;;;;;;4.30;0.70;;;;;;;22.61;46.95;99835.77;109779;1280;22160;-78
2023/07/27 10:53:37;;;;;;;3.20;0.40;;;;;;;22.67;46.81;99835.22;109798;1280;22133;-78
2023/07/27 10:56:10;;;;;;;3.40;0.70;;;;;;;22.70;45.97;99833.59;109785;1285;23102;-78
2023/07/27 10:58:42;;;;;;;2.50;0.60;;;;;;;22.61;46.19;99829.52;109793;1283;22198;-78
2023/07/27 11:01:13;;;;;;;3.10;0.40;;;;;;;22.59;46.10;99829.86;109783;1285;22418;-78
2023/07/27 11:03:45;;;;;;;2.70;0.60;;;;;;;22.60;45.97;99819.08;109813;1285;22162;-78
2023/07/27 11:06:17;;;;;;;3.40;0.50;;;;;;;22.65;46.06;99809.27;109797;1285;22250;-78
2023/07/27 11:08:48;;;;;;;1.90;0.50;;;;;;;22.70;45.54;99810.40;109805;1285;22129;-78
2023/07/27 11:11:20;;;;;;;3.70;0.60;;;;;;;22.71;45.60;99811.98;109788;1284;22187;-78
2023/07/27 11:13:51;;;;;;;6.20;0.60;;;;;;;22.75;45.00;99809.45;109784;1285;22161;-78
2023/07/27 11:16:22;;;;;;;5.20;0.50;;;;;;;22.75;44.78;99811.88;109802;1285;22861;-78
2023/07/27 11:18:53;;;;;;;2.80;0.60;;;;;;;22.75;44.55;99805.73;105707;1284;5409290;-78
2023/07/27 11:21:24;;;;;;;3.10;0.30;;;;;;;22.72;43.82;99805.35;109762;1285;22968;-79
2023/07/27 11:23:55;;;;;;;9.90;1.80;;;;;;;22.69;43.56;99796.52;109795;1285;23092;-78
2023/07/27 11:26:27;;;;;;;4.50;0.60;;;;;;;22.66;42.87;99790.46;109787;1285;22193;-78
2023/07/27 11:29:07;;;;;;;3.90;0.60;;;;;;;22.66;43.08;99784.02;109788;1283;22226;-78
2023/07/27 11:31:38;;;;;;;3.60;0.80;;;;;;;22.67;42.79;99776.31;109798;1285;22799;-78
2023/07/27 11:34:09;;;;;;;4.00;0.60;;;;;;;22.66;42.39;99771.80;109787;1280;22129;-78
2023/07/27 11:36:39;;;;;;;2.70;0.60;;;;;;;22.59;41.80;99770.98;109785;1270;22157;-78
2023/07/27 11:39:11;;;;;;;1.70;0.50;;;;;;;22.58;42.04;99772.14;109774;1283;22985;-78
2023/07/27 11:41:42;;;;;;;2.10;0.50;;;;;;;22.55;41.68;99768.70;109782;1274;22193;-78
2023/07/27 11:44:13;;;;;;;4.30;0.50;;;;;;;22.47;41.46;99765.42;109781;1285;22220;-78
2023/07/27 11:46:47;;;;;;;4.80;0.60;;;;;;;22.38;41.39;99759.56;109787;1285;22166;-78